Estación Meteorológica Peña el Pijo (Robertgarden) [ 02/03/23 04:02:52 CET ]

Fecha Hora Presion(HPa) Temp (°C) Humedad % Rocio (°C) Viento ( m/s) Direccion Lluvia 1Hora(mm) Lluvia 24H(mm) LLuvia Total(mm)
2012-Aug-09 01:01:17 1017.100 18.2 59 10.0         176.12
2012-Aug-09 02:01:13 1017.300 16.9 62 9.6         176.12
2012-Aug-09 03:04:14 1017.200 15.9 64 9.1         176.12
2012-Aug-09 04:01:14 1017.100 15.3 67 9.2         176.12
2012-Aug-09 05:01:16 1017.000 15.3 65 8.8         176.12
2012-Aug-09 06:01:14 1017.000 15.8 65 9.2         176.12
2012-Aug-09 07:01:19 1017.000 16.3 63 9.3         176.12
2012-Aug-09 08:01:12 1017.000 15.6 66 9.3         176.12
2012-Aug-09 09:01:17 1017.000 19.3 61 11.6         176.12
2012-Aug-09 10:01:16 1017.100 26.4 50 14.8         176.12
2012-Aug-09 11:01:18 1017.400 33.9 30 13.9         176.12
2012-Aug-09 12:01:14 1017.300 36.5 18 8.0         176.12
2012-Aug-09 13:01:13 1017.500 38.6 17 8.7         176.12
2012-Aug-09 14:01:17 1017.100 35.9 18 7.5         176.12
2012-Aug-09 15:01:16 1016.600 34.9 21 9.2         176.12
2012-Aug-09 16:01:16 1016.900 32.8 24 9.4         176.12
2012-Aug-09 17:01:13 1016.600 29.9 38 14.0         176.12
2012-Aug-09 18:01:12 1017.400 32.2 24 8.9         176.12
2012-Aug-09 19:01:17 1017.400 31.9 22 7.4         176.12
2012-Aug-09 20:01:18 1017.600 31.4 20 5.8 0.7 SW     176.12
2012-Aug-09 21:01:14 1018.600 30.9 19 4.5 1.3 SSW     176.12
2012-Aug-09 22:01:18 1018.800 27.9 26 6.4         176.12
2012-Aug-09 23:01:13 1019.200 23.9 33 6.6         176.12

Temperatura Máxima:38°    Temperatura Mínima:15°
Presión Máxima:1019.200 Hpa    Presión Mínima:1016.600 Hpa


Volver